createdAt,value
2023-01-22T00:02:13.300Z,1.70
2023-01-22T00:04:46.391Z,1.70
2023-01-22T00:07:19.768Z,1.66
2023-01-22T00:09:52.902Z,1.60
2023-01-22T00:12:26.076Z,1.60
2023-01-22T00:14:59.117Z,1.60
2023-01-22T00:17:32.490Z,1.60
2023-01-22T00:20:05.760Z,1.60
2023-01-22T00:22:38.758Z,1.60
2023-01-22T00:25:14.553Z,1.60
2023-01-22T00:27:47.696Z,1.60
2023-01-22T00:30:21.535Z,1.60
2023-01-22T00:32:54.505Z,1.60
2023-01-22T00:35:27.614Z,1.60
2023-01-22T00:38:00.576Z,1.60
2023-01-22T00:40:33.536Z,1.60
2023-01-22T00:43:06.506Z,1.50
2023-01-22T00:45:40.113Z,1.50
2023-01-22T00:48:13.081Z,1.50
2023-01-22T00:50:45.988Z,1.50
2023-01-22T00:53:18.961Z,1.50
2023-01-22T00:55:59.391Z,1.50
2023-01-22T00:58:32.956Z,1.50
2023-01-22T01:01:06.844Z,1.50
2023-01-22T01:03:40.187Z,1.50
2023-01-22T01:06:17.481Z,1.50
2023-01-22T01:08:52.535Z,1.50
2023-01-22T01:11:27.754Z,1.50
2023-01-22T01:14:03.086Z,1.50
2023-01-22T01:16:36.484Z,1.50
2023-01-22T01:19:13.194Z,1.50
2023-01-22T01:21:46.563Z,1.50
2023-01-22T01:24:20.166Z,1.50
2023-01-22T01:26:53.959Z,1.50
2023-01-22T01:29:27.238Z,1.50
2023-01-22T01:32:00.341Z,1.50
2023-01-22T01:34:33.355Z,1.58
2023-01-22T01:37:06.338Z,1.60
2023-01-22T01:39:39.256Z,1.60
2023-01-22T01:42:12.243Z,1.60
2023-01-22T01:44:46.471Z,1.60
2023-01-22T01:47:34.376Z,1.60
2023-01-22T01:50:08.845Z,1.60
2023-01-22T01:52:42.146Z,1.60
2023-01-22T01:55:16.973Z,1.60
2023-01-22T01:57:50.905Z,1.60
2023-01-22T02:00:25.588Z,1.60
2023-01-22T02:02:58.905Z,1.60
2023-01-22T02:05:37.695Z,1.60
2023-01-22T02:08:12.252Z,1.60
2023-01-22T02:10:45.650Z,1.60
2023-01-22T02:13:22.376Z,1.60
2023-01-22T02:15:56.066Z,1.60
2023-01-22T02:18:29.456Z,1.60
2023-01-22T02:21:03.917Z,1.60
2023-01-22T02:23:38.678Z,1.60
2023-01-22T02:26:11.644Z,1.60
2023-01-22T02:28:45.526Z,1.60
2023-01-22T02:31:18.635Z,1.60
2023-01-22T02:33:51.707Z,1.60
2023-01-22T02:36:24.699Z,1.60
2023-01-22T02:38:57.952Z,1.60
2023-01-22T02:41:31.247Z,1.60
2023-01-22T02:44:07.548Z,1.60
2023-01-22T02:46:41.345Z,1.60
2023-01-22T02:49:14.441Z,1.60
2023-01-22T02:51:47.421Z,1.60
2023-01-22T02:54:20.551Z,1.60
2023-01-22T02:56:53.520Z,1.60
2023-01-22T02:59:26.699Z,1.62
2023-01-22T03:01:59.681Z,1.62
2023-01-22T03:04:33.097Z,1.70
2023-01-22T03:07:06.133Z,1.70
2023-01-22T03:09:39.082Z,1.68
2023-01-22T03:12:13.468Z,1.70
2023-01-22T03:15:03.976Z,1.70
2023-01-22T03:17:54.475Z,1.70
2023-01-22T03:20:44.912Z,1.70
2023-01-22T03:23:16.305Z,1.70
2023-01-22T03:25:49.252Z,1.70
2023-01-22T03:28:22.334Z,1.70
2023-01-22T03:30:59.924Z,1.70
2023-01-22T03:33:33.721Z,1.70
2023-01-22T03:36:10.459Z,1.70
2023-01-22T03:38:46.721Z,1.70
2023-01-22T03:41:22.800Z,1.70
2023-01-22T03:43:55.895Z,1.70
2023-01-22T03:46:32.114Z,1.70
2023-01-22T03:49:05.236Z,1.70
2023-01-22T03:51:38.819Z,1.70
2023-01-22T03:54:13.820Z,1.70
2023-01-22T03:56:47.089Z,1.70
2023-01-22T03:59:34.536Z,1.70
2023-01-22T04:02:07.542Z,1.70
2023-01-22T04:04:44.812Z,1.70
2023-01-22T04:07:18.632Z,1.70
2023-01-22T04:09:52.421Z,1.70
2023-01-22T04:12:25.557Z,1.70
2023-01-22T04:14:58.719Z,1.60
2023-01-22T04:17:32.798Z,1.62
2023-01-22T04:20:17.340Z,1.60
2023-01-22T04:23:01.286Z,1.60
2023-01-22T04:25:34.611Z,1.70
2023-01-22T04:28:08.825Z,1.70
2023-01-22T04:30:42.749Z,1.70
2023-01-22T04:33:34.336Z,1.70
2023-01-22T04:36:12.698Z,1.70
2023-01-22T04:38:45.676Z,1.70
2023-01-22T04:41:18.770Z,1.70
2023-01-22T04:43:51.701Z,1.70
2023-01-22T04:46:25.193Z,1.70
2023-01-22T04:48:58.603Z,1.74
2023-01-22T04:51:31.837Z,1.70
2023-01-22T04:54:05.310Z,1.70
2023-01-22T04:56:38.469Z,1.70
2023-01-22T04:59:11.854Z,1.70
2023-01-22T05:01:45.554Z,1.70
2023-01-22T05:04:18.678Z,1.70
2023-01-22T05:06:52.482Z,1.70
2023-01-22T05:09:26.024Z,1.70
2023-01-22T05:12:01.828Z,1.70
2023-01-22T05:14:39.321Z,1.70
2023-01-22T05:17:12.258Z,1.70
2023-01-22T05:19:45.341Z,1.70
2023-01-22T05:22:23.159Z,1.70
2023-01-22T05:24:56.358Z,1.70
2023-01-22T05:27:29.456Z,1.70
2023-01-22T05:30:09.876Z,1.68
2023-01-22T05:32:46.640Z,1.64
2023-01-22T05:35:20.324Z,1.60
2023-01-22T05:37:53.323Z,1.66
2023-01-22T05:40:28.717Z,1.68
2023-01-22T05:43:03.756Z,1.62
2023-01-22T05:45:37.452Z,1.62
2023-01-22T05:48:28.257Z,1.60
2023-01-22T05:51:11.648Z,1.62
2023-01-22T05:53:44.808Z,1.60
2023-01-22T05:56:19.221Z,1.60
2023-01-22T05:58:52.684Z,1.60
2023-01-22T06:01:26.057Z,1.60
2023-01-22T06:03:59.531Z,1.60
2023-01-22T06:06:32.669Z,1.60
2023-01-22T06:09:06.119Z,1.60
2023-01-22T06:11:41.883Z,1.60
2023-01-22T06:14:14.845Z,1.60
2023-01-22T06:16:47.879Z,1.68
2023-01-22T06:19:41.363Z,1.70
2023-01-22T06:22:14.646Z,1.70
2023-01-22T06:24:54.265Z,1.70
2023-01-22T06:27:28.375Z,1.70
2023-01-22T06:30:06.977Z,1.70
2023-01-22T06:32:40.904Z,1.70
2023-01-22T06:35:14.695Z,1.70
2023-01-22T06:37:47.677Z,1.80
2023-01-22T06:40:21.253Z,1.80
2023-01-22T06:42:55.797Z,1.80
2023-01-22T06:45:28.818Z,1.76
2023-01-22T06:48:03.485Z,1.70
2023-01-22T06:50:36.548Z,1.70
2023-01-22T06:53:09.563Z,1.70
2023-01-22T06:55:42.662Z,1.70
2023-01-22T06:58:15.943Z,1.70
2023-01-22T07:00:48.921Z,1.70
2023-01-22T07:03:22.024Z,1.70
2023-01-22T07:06:03.131Z,1.70
2023-01-22T07:08:37.260Z,1.70
2023-01-22T07:11:10.704Z,1.70
2023-01-22T07:13:43.782Z,1.70
2023-01-22T07:16:16.835Z,1.70
2023-01-22T07:18:49.792Z,1.70
2023-01-22T07:21:22.860Z,1.70
2023-01-22T07:23:55.921Z,1.70
2023-01-22T07:26:28.902Z,1.70
2023-01-22T07:29:02.893Z,1.74
2023-01-22T07:31:36.301Z,1.72
2023-01-22T07:34:09.345Z,1.76
2023-01-22T07:36:42.579Z,1.80
2023-01-22T07:39:15.608Z,1.80
2023-01-22T07:41:48.591Z,1.80
2023-01-22T07:44:21.881Z,1.80
2023-01-22T07:46:54.844Z,1.90
2023-01-22T07:49:27.926Z,1.90
2023-01-22T07:52:01.011Z,1.90
2023-01-22T07:54:36.682Z,1.90
2023-01-22T07:57:14.534Z,2.00
2023-01-22T07:59:47.621Z,2.00
2023-01-22T08:02:20.656Z,2.00
2023-01-22T08:04:53.835Z,2.00
2023-01-22T08:07:27.852Z,2.00
2023-01-22T08:10:00.903Z,2.10
2023-01-22T08:12:33.867Z,2.10
2023-01-22T08:15:07.877Z,2.10
2023-01-22T08:17:41.628Z,2.10
2023-01-22T08:20:15.921Z,2.18
2023-01-22T08:22:48.993Z,2.20
2023-01-22T08:25:22.176Z,2.20
2023-01-22T08:27:55.097Z,2.20
2023-01-22T08:30:28.200Z,2.24
2023-01-22T08:33:03.009Z,2.30
2023-01-22T08:35:36.244Z,2.30
2023-01-22T08:38:09.191Z,2.30
2023-01-22T08:40:42.189Z,2.30
2023-01-22T08:43:15.140Z,2.30
2023-01-22T08:45:50.650Z,2.40
2023-01-22T08:48:23.715Z,2.40
2023-01-22T08:50:56.773Z,2.40
2023-01-22T08:53:30.737Z,2.40
2023-01-22T08:56:03.649Z,2.44
2023-01-22T08:58:36.638Z,2.50
2023-01-22T09:01:15.102Z,2.50
2023-01-22T09:03:48.967Z,2.50
2023-01-22T09:06:23.329Z,2.50
2023-01-22T09:08:56.389Z,2.50
2023-01-22T09:11:29.555Z,2.50
2023-01-22T09:14:03.889Z,2.50
2023-01-22T09:16:37.421Z,2.54
2023-01-22T09:19:11.716Z,2.50
2023-01-22T09:21:44.740Z,2.60
2023-01-22T09:24:17.797Z,2.60
2023-01-22T09:26:50.761Z,2.70
2023-01-22T09:29:23.815Z,2.70
2023-01-22T09:31:57.846Z,2.70
2023-01-22T09:34:30.899Z,2.66
2023-01-22T09:37:08.043Z,2.70
2023-01-22T09:39:41.425Z,2.64
2023-01-22T09:42:24.628Z,2.60
2023-01-22T09:45:01.904Z,2.60
2023-01-22T09:47:41.931Z,2.60
2023-01-22T09:50:24.280Z,2.60
2023-01-22T09:53:02.528Z,2.60
2023-01-22T09:55:42.197Z,2.58
2023-01-22T09:58:20.792Z,2.56
2023-01-22T10:01:00.396Z,2.60
2023-01-22T10:03:39.008Z,2.60
2023-01-22T10:06:18.513Z,2.60
2023-01-22T10:09:03.422Z,2.60
2023-01-22T10:11:37.691Z,2.60
2023-01-22T10:14:17.079Z,2.52
2023-01-22T10:16:50.306Z,2.50
2023-01-22T10:19:29.162Z,2.56
2023-01-22T10:22:07.929Z,2.60
2023-01-22T10:24:40.968Z,2.60
2023-01-22T10:27:20.793Z,2.60
2023-01-22T10:30:06.141Z,2.60
2023-01-22T10:32:39.460Z,2.58
2023-01-22T10:35:22.443Z,2.58
2023-01-22T10:37:57.646Z,2.50
2023-01-22T10:40:38.205Z,2.50
2023-01-22T10:43:16.360Z,2.50
2023-01-22T10:45:59.706Z,2.40
2023-01-22T10:48:33.063Z,2.40
2023-01-22T10:51:16.652Z,2.40
2023-01-22T10:53:55.792Z,2.40
2023-01-22T10:56:35.712Z,2.40
2023-01-22T10:59:23.156Z,2.40
2023-01-22T11:02:02.803Z,2.40
2023-01-22T11:04:36.834Z,2.50
2023-01-22T11:07:16.102Z,2.50
2023-01-22T11:09:54.670Z,2.50
2023-01-22T11:12:31.152Z,2.60
2023-01-22T11:15:14.113Z,2.60
2023-01-22T11:17:52.251Z,2.50
2023-01-22T11:20:31.271Z,2.50
2023-01-22T11:23:18.460Z,2.40
2023-01-22T11:26:03.320Z,2.40
2023-01-22T11:28:48.229Z,2.40
2023-01-22T11:31:41.839Z,2.40
2023-01-22T11:34:53.415Z,2.50
2023-01-22T11:37:57.324Z,2.50
2023-01-22T11:40:33.414Z,2.60
2023-01-22T11:43:26.233Z,2.60
2023-01-22T11:46:28.122Z,2.70
2023-01-22T11:49:14.804Z,2.70
2023-01-22T11:52:00.652Z,2.70
2023-01-22T11:55:11.791Z,2.76
2023-01-22T11:57:51.592Z,2.80
2023-01-22T12:00:51.853Z,2.90
2023-01-22T12:04:10.376Z,2.90
2023-01-22T12:07:14.477Z,3.00
2023-01-22T12:09:58.593Z,3.00
2023-01-22T12:12:43.875Z,3.00
2023-01-22T12:15:38.254Z,3.00
2023-01-22T12:18:50.397Z,3.00
2023-01-22T12:21:41.919Z,2.90
2023-01-22T12:24:20.766Z,2.88
2023-01-22T12:27:02.620Z,2.80
2023-01-22T12:29:41.805Z,2.80
2023-01-22T12:32:19.370Z,2.80
2023-01-22T12:35:00.003Z,2.74
2023-01-22T12:37:41.288Z,2.70
2023-01-22T12:40:36.063Z,2.70
2023-01-22T12:43:10.234Z,2.70
2023-01-22T12:45:54.767Z,2.70
2023-01-22T12:48:39.505Z,2.72
2023-01-22T12:51:40.276Z,2.80
2023-01-22T12:54:29.129Z,2.80
2023-01-22T12:57:27.335Z,2.80
2023-01-22T13:00:11.179Z,2.90
2023-01-22T13:02:44.187Z,2.90
2023-01-22T13:05:38.637Z,3.00
2023-01-22T13:08:36.306Z,3.00
2023-01-22T13:11:11.978Z,3.10
2023-01-22T13:13:55.200Z,3.20
2023-01-22T13:16:35.629Z,3.22
2023-01-22T13:19:24.295Z,3.22
2023-01-22T13:22:00.429Z,3.20
2023-01-22T13:24:33.621Z,3.20
2023-01-22T13:27:07.211Z,3.10
2023-01-22T13:29:42.807Z,3.10
2023-01-22T13:32:25.253Z,3.00
2023-01-22T13:35:06.359Z,3.00
2023-01-22T13:37:41.918Z,3.00
2023-01-22T13:40:27.608Z,3.00
2023-01-22T13:43:01.583Z,3.10
2023-01-22T13:45:36.205Z,3.10
2023-01-22T13:48:15.507Z,3.20
2023-01-22T13:50:54.053Z,3.20
2023-01-22T13:53:32.502Z,3.20
2023-01-22T13:56:05.960Z,3.10
2023-01-22T13:58:48.388Z,3.00
2023-01-22T14:01:34.787Z,2.90
2023-01-22T14:04:26.134Z,2.90
2023-01-22T14:06:59.362Z,2.90
2023-01-22T14:09:35.216Z,2.80
2023-01-22T14:12:21.971Z,2.80
2023-01-22T14:14:55.821Z,2.76
2023-01-22T14:17:31.604Z,2.70
2023-01-22T14:20:05.643Z,2.70
2023-01-22T14:22:38.907Z,2.70
2023-01-22T14:25:13.343Z,2.68
2023-01-22T14:27:48.775Z,2.60
2023-01-22T14:30:23.084Z,2.58
2023-01-22T14:32:56.140Z,2.50
2023-01-22T14:35:30.203Z,2.50
2023-01-22T14:38:03.260Z,2.50
2023-01-22T14:40:36.298Z,2.50
2023-01-22T14:43:09.587Z,2.50
2023-01-22T14:45:45.273Z,2.50
2023-01-22T14:48:20.682Z,2.50
2023-01-22T14:50:54.084Z,2.50
2023-01-22T14:53:27.143Z,2.50
2023-01-22T14:56:00.253Z,2.50
2023-01-22T14:58:33.339Z,2.44
2023-01-22T15:01:17.031Z,2.44
2023-01-22T15:03:50.497Z,2.40
2023-01-22T15:06:24.403Z,2.40
2023-01-22T15:08:57.504Z,2.40
2023-01-22T15:11:30.619Z,2.40
2023-01-22T15:14:05.686Z,2.40
2023-01-22T15:16:40.485Z,2.40
2023-01-22T15:19:13.621Z,2.40
2023-01-22T15:21:46.656Z,2.40
2023-01-22T15:24:19.779Z,2.40
2023-01-22T15:26:53.918Z,2.38
2023-01-22T15:29:27.059Z,2.36
2023-01-22T15:32:00.266Z,2.32
2023-01-22T15:34:33.341Z,2.32
2023-01-22T15:37:06.633Z,2.30
2023-01-22T15:39:40.322Z,2.30
2023-01-22T15:42:13.485Z,2.30
2023-01-22T15:44:47.035Z,2.30
2023-01-22T15:47:20.505Z,2.30
2023-01-22T15:49:53.784Z,2.30
2023-01-22T15:52:26.943Z,2.30
2023-01-22T15:55:00.878Z,2.30
2023-01-22T15:57:34.132Z,2.28
2023-01-22T16:00:11.191Z,2.20
2023-01-22T16:02:47.193Z,2.22
2023-01-22T16:05:21.555Z,2.20
2023-01-22T16:07:54.619Z,2.20
2023-01-22T16:10:27.960Z,2.20
2023-01-22T16:13:01.187Z,2.20
2023-01-22T16:15:34.461Z,2.20
2023-01-22T16:18:07.677Z,2.20
2023-01-22T16:20:40.671Z,2.20
2023-01-22T16:23:13.791Z,2.20
2023-01-22T16:25:46.963Z,2.20
2023-01-22T16:28:20.017Z,2.20
2023-01-22T16:30:53.200Z,2.20
2023-01-22T16:33:29.428Z,2.20
2023-01-22T16:36:08.721Z,2.20
2023-01-22T16:38:42.904Z,2.20
2023-01-22T16:41:28.776Z,2.18
2023-01-22T16:44:08.111Z,2.20
2023-01-22T16:46:43.258Z,2.20
2023-01-22T16:49:18.587Z,2.18
2023-01-22T16:51:53.849Z,2.16
2023-01-22T16:54:29.405Z,2.10
2023-01-22T16:57:05.093Z,2.10
2023-01-22T16:59:40.687Z,2.08
2023-01-22T17:02:19.476Z,2.00
2023-01-22T17:04:54.105Z,2.00
2023-01-22T17:07:33.566Z,2.00
2023-01-22T17:10:08.510Z,2.00
2023-01-22T17:12:42.027Z,1.90
2023-01-22T17:15:16.229Z,1.90
2023-01-22T17:17:49.417Z,1.80
2023-01-22T17:20:22.671Z,1.80
2023-01-22T17:22:55.824Z,1.78
2023-01-22T17:25:29.036Z,1.72
2023-01-22T17:28:02.444Z,1.70
2023-01-22T17:30:36.239Z,1.70
2023-01-22T17:33:09.312Z,1.70
2023-01-22T17:35:42.446Z,1.70
2023-01-22T17:38:15.668Z,1.68
2023-01-22T17:40:48.658Z,1.70
2023-01-22T17:43:21.737Z,1.62
2023-01-22T17:45:55.231Z,1.70
2023-01-22T17:48:30.235Z,1.70
2023-01-22T17:51:10.322Z,1.70
2023-01-22T17:53:45.913Z,1.70
2023-01-22T17:56:22.204Z,1.70
2023-01-22T17:58:58.301Z,1.70
2023-01-22T18:01:32.795Z,1.70
2023-01-22T18:04:09.469Z,1.70
2023-01-22T18:06:43.716Z,1.76
2023-01-22T18:09:17.511Z,1.80
2023-01-22T18:11:50.901Z,1.80
2023-01-22T18:14:25.649Z,1.80
2023-01-22T18:16:59.170Z,1.80
2023-01-22T18:19:32.421Z,1.80
2023-01-22T18:22:05.539Z,1.80
2023-01-22T18:24:38.570Z,1.80
2023-01-22T18:27:11.676Z,1.80
2023-01-22T18:29:44.754Z,1.82
2023-01-22T18:32:17.800Z,1.88
2023-01-22T18:34:50.985Z,1.90
2023-01-22T18:37:24.003Z,1.90
2023-01-22T18:39:57.131Z,1.90
2023-01-22T18:42:31.431Z,1.90
2023-01-22T18:45:06.561Z,1.90
2023-01-22T18:47:39.599Z,1.90
2023-01-22T18:50:16.835Z,1.90
2023-01-22T18:52:50.653Z,1.90
2023-01-22T18:55:23.796Z,1.92
2023-01-22T18:58:02.242Z,1.98
2023-01-22T19:00:35.375Z,2.00
2023-01-22T19:03:09.517Z,2.00
2023-01-22T19:05:43.125Z,2.00
2023-01-22T19:08:16.122Z,2.00
2023-01-22T19:10:49.330Z,2.10
2023-01-22T19:13:22.605Z,2.10
2023-01-22T19:15:55.621Z,2.10
2023-01-22T19:18:29.563Z,2.10
2023-01-22T19:21:10.354Z,2.10
2023-01-22T19:23:47.109Z,2.10
2023-01-22T19:26:24.050Z,2.12
2023-01-22T19:29:00.895Z,2.10
2023-01-22T19:31:36.531Z,2.20
2023-01-22T19:34:10.883Z,2.20
2023-01-22T19:36:44.205Z,2.20
2023-01-22T19:39:17.827Z,2.20
2023-01-22T19:41:51.065Z,2.20
2023-01-22T19:44:24.189Z,2.30
2023-01-22T19:46:57.538Z,2.30
2023-01-22T19:49:31.439Z,2.30
2023-01-22T19:52:04.646Z,2.30
2023-01-22T19:54:40.680Z,2.30
2023-01-22T19:57:13.679Z,2.30
2023-01-22T19:59:48.228Z,2.30
2023-01-22T20:02:23.773Z,2.30
2023-01-22T20:04:56.892Z,2.30
2023-01-22T20:07:29.900Z,2.30
2023-01-22T20:10:02.969Z,2.30
2023-01-22T20:12:35.991Z,2.30
2023-01-22T20:15:11.477Z,2.30
2023-01-22T20:17:44.490Z,2.30
2023-01-22T20:20:18.329Z,2.28
2023-01-22T20:22:53.596Z,2.24
2023-01-22T20:25:26.685Z,2.26
2023-01-22T20:28:02.507Z,2.20
2023-01-22T20:30:35.587Z,2.20
2023-01-22T20:33:11.289Z,2.20
2023-01-22T20:35:46.652Z,2.22
2023-01-22T20:38:19.661Z,2.20
2023-01-22T20:40:52.797Z,2.20
2023-01-22T20:43:26.746Z,2.20
2023-01-22T20:46:06.546Z,2.20
2023-01-22T20:48:39.981Z,2.20
2023-01-22T20:51:18.869Z,2.20
2023-01-22T20:53:54.366Z,2.20
2023-01-22T20:56:31.679Z,2.20
2023-01-22T20:59:08.018Z,2.20
2023-01-22T21:01:41.580Z,2.20
2023-01-22T21:04:15.902Z,2.22
2023-01-22T21:06:49.218Z,2.22
2023-01-22T21:09:22.204Z,2.20
2023-01-22T21:11:55.341Z,2.20
2023-01-22T21:14:30.535Z,2.20
2023-01-22T21:17:03.643Z,2.20
2023-01-22T21:19:36.755Z,2.20
2023-01-22T21:22:09.775Z,2.20
2023-01-22T21:24:42.882Z,2.20
2023-01-22T21:27:15.883Z,2.20
2023-01-22T21:29:48.870Z,2.20
2023-01-22T21:32:22.147Z,2.20
2023-01-22T21:34:55.186Z,2.20
2023-01-22T21:37:28.269Z,2.20
2023-01-22T21:40:01.281Z,2.20
2023-01-22T21:42:51.998Z,2.22
2023-01-22T21:45:42.612Z,2.26
2023-01-22T21:48:14.171Z,2.30
2023-01-22T21:50:47.120Z,2.30
2023-01-22T21:53:20.602Z,2.26
2023-01-22T21:55:57.044Z,2.20
2023-01-22T21:58:30.150Z,2.20
2023-01-22T22:01:10.193Z,2.22
2023-01-22T22:03:43.375Z,2.26
2023-01-22T22:06:17.023Z,2.30
2023-01-22T22:08:50.136Z,2.30
2023-01-22T22:11:24.889Z,2.30
2023-01-22T22:13:58.096Z,2.30
2023-01-22T22:16:32.868Z,2.30
2023-01-22T22:19:07.661Z,2.30
2023-01-22T22:21:40.874Z,2.30
2023-01-22T22:24:15.273Z,2.30
2023-01-22T22:26:48.464Z,2.30
2023-01-22T22:29:21.768Z,2.30
2023-01-22T22:31:54.860Z,2.30
2023-01-22T22:34:27.835Z,2.30
2023-01-22T22:37:01.081Z,2.30
2023-01-22T22:39:34.090Z,2.30
2023-01-22T22:42:07.414Z,2.30
2023-01-22T22:44:41.212Z,2.30
2023-01-22T22:47:14.313Z,2.30
2023-01-22T22:49:47.620Z,2.30
2023-01-22T22:52:21.562Z,2.30
2023-01-22T22:54:54.671Z,2.30
2023-01-22T22:57:27.715Z,2.30
2023-01-22T23:00:01.336Z,2.40
2023-01-22T23:02:34.359Z,2.38
2023-01-22T23:05:08.273Z,2.40
2023-01-22T23:07:41.312Z,2.40
2023-01-22T23:10:28.995Z,2.40
2023-01-22T23:13:04.689Z,2.40
2023-01-22T23:15:37.985Z,2.38
2023-01-22T23:18:11.033Z,2.38
2023-01-22T23:20:44.010Z,2.40
2023-01-22T23:23:17.083Z,2.40
2023-01-22T23:25:50.429Z,2.40
2023-01-22T23:28:23.641Z,2.40
2023-01-22T23:30:56.704Z,2.40
2023-01-22T23:33:30.093Z,2.40
2023-01-22T23:36:07.693Z,2.40
2023-01-22T23:38:41.420Z,2.40
2023-01-22T23:41:19.730Z,2.40
2023-01-22T23:43:52.942Z,2.40
2023-01-22T23:46:29.225Z,2.40
2023-01-22T23:49:03.169Z,2.40
2023-01-22T23:51:36.900Z,2.40
2023-01-22T23:54:10.512Z,2.40
2023-01-22T23:56:43.608Z,2.40
2023-01-22T23:59:16.816Z,2.40
